sensor_id;sensor_type;location;lat;lon;timestamp;temperature;humidity
5786;DHT22;2919;48.630;9.000;2022-12-20T00:01:20;4.00;99.90
5786;DHT22;2919;48.630;9.000;2022-12-20T00:03:48;3.90;99.90
5786;DHT22;2919;48.630;9.000;2022-12-20T00:06:15;3.90;99.90
5786;DHT22;2919;48.630;9.000;2022-12-20T00:08:40;3.90;99.90
5786;DHT22;2919;48.630;9.000;2022-12-20T00:11:07;3.80;99.90
5786;DHT22;2919;48.630;9.000;2022-12-20T00:13:34;3.80;99.90
5786;DHT22;2919;48.630;9.000;2022-12-20T00:16:10;3.90;99.90
5786;DHT22;2919;48.630;9.000;2022-12-20T00:18:37;3.90;99.90
5786;DHT22;2919;48.630;9.000;2022-12-20T00:21:05;3.90;99.90
5786;DHT22;2919;48.630;9.000;2022-12-20T00:23:31;3.90;99.90
5786;DHT22;2919;48.630;9.000;2022-12-20T00:26:09;3.80;99.90
5786;DHT22;2919;48.630;9.000;2022-12-20T00:28:36;3.80;99.90
5786;DHT22;2919;48.630;9.000;2022-12-20T00:31:02;3.70;99.90
5786;DHT22;2919;48.630;9.000;2022-12-20T00:33:29;3.70;99.90
5786;DHT22;2919;48.630;9.000;2022-12-20T00:35:57;3.70;99.90
5786;DHT22;2919;48.630;9.000;2022-12-20T00:38:24;3.70;99.90
5786;DHT22;2919;48.630;9.000;2022-12-20T00:41:10;3.70;99.90
5786;DHT22;2919;48.630;9.000;2022-12-20T00:43:37;3.70;99.90
5786;DHT22;2919;48.630;9.000;2022-12-20T00:46:03;3.70;99.90
5786;DHT22;2919;48.630;9.000;2022-12-20T00:48:30;3.70;99.90
5786;DHT22;2919;48.630;9.000;2022-12-20T00:51:04;3.60;99.90
5786;DHT22;2919;48.630;9.000;2022-12-20T00:53:31;3.60;99.90
5786;DHT22;2919;48.630;9.000;2022-12-20T00:55:57;3.50;99.90
5786;DHT22;2919;48.630;9.000;2022-12-20T00:58:23;3.50;99.90
5786;DHT22;2919;48.630;9.000;2022-12-20T01:00:49;3.50;99.90
5786;DHT22;2919;48.630;9.000;2022-12-20T01:03:15;3.50;99.90
5786;DHT22;2919;48.630;9.000;2022-12-20T01:08:17;3.70;99.90
5786;DHT22;2919;48.630;9.000;2022-12-20T01:10:43;3.80;99.90
5786;DHT22;2919;48.630;9.000;2022-12-20T01:13:09;3.80;99.90
5786;DHT22;2919;48.630;9.000;2022-12-20T01:15:35;3.70;99.90
5786;DHT22;2919;48.630;9.000;2022-12-20T01:18:00;3.70;99.90
5786;DHT22;2919;48.630;9.000;2022-12-20T01:20:26;3.70;99.90
5786;DHT22;2919;48.630;9.000;2022-12-20T01:22:51;3.70;99.90
5786;DHT22;2919;48.630;9.000;2022-12-20T01:25:17;3.70;99.90
5786;DHT22;2919;48.630;9.000;2022-12-20T01:27:42;3.70;99.90
5786;DHT22;2919;48.630;9.000;2022-12-20T01:30:09;3.70;99.90
5786;DHT22;2919;48.630;9.000;2022-12-20T01:32:34;3.70;99.90
5786;DHT22;2919;48.630;9.000;2022-12-20T01:35:00;3.70;99.90
5786;DHT22;2919;48.630;9.000;2022-12-20T01:37:25;3.70;99.90
5786;DHT22;2919;48.630;9.000;2022-12-20T01:39:51;3.80;99.90
5786;DHT22;2919;48.630;9.000;2022-12-20T01:42:16;3.90;99.90
5786;DHT22;2919;48.630;9.000;2022-12-20T01:47:09;4.00;99.90
5786;DHT22;2919;48.630;9.000;2022-12-20T01:49:39;4.00;99.90
5786;DHT22;2919;48.630;9.000;2022-12-20T01:52:12;4.00;99.90
5786;DHT22;2919;48.630;9.000;2022-12-20T01:54:51;4.00;99.90
5786;DHT22;2919;48.630;9.000;2022-12-20T01:57:21;4.00;99.90
5786;DHT22;2919;48.630;9.000;2022-12-20T01:59:49;4.00;99.90
5786;DHT22;2919;48.630;9.000;2022-12-20T02:02:16;4.00;99.90
5786;DHT22;2919;48.630;9.000;2022-12-20T02:04:42;3.90;99.90
5786;DHT22;2919;48.630;9.000;2022-12-20T02:07:10;3.90;99.90
5786;DHT22;2919;48.630;9.000;2022-12-20T02:09:38;3.80;99.90
5786;DHT22;2919;48.630;9.000;2022-12-20T02:12:08;3.80;99.90
5786;DHT22;2919;48.630;9.000;2022-12-20T02:15:28;3.80;99.90
5786;DHT22;2919;48.630;9.000;2022-12-20T02:22:56;3.60;99.90
5786;DHT22;2919;48.630;9.000;2022-12-20T02:31:19;3.70;99.90
5786;DHT22;2919;48.630;9.000;2022-12-20T02:33:51;3.70;99.90
5786;DHT22;2919;48.630;9.000;2022-12-20T02:36:18;3.60;99.90
5786;DHT22;2919;48.630;9.000;2022-12-20T02:38:44;3.60;99.90
5786;DHT22;2919;48.630;9.000;2022-12-20T02:43:47;3.60;99.90
5786;DHT22;2919;48.630;9.000;2022-12-20T02:46:33;3.60;99.90
5786;DHT22;2919;48.630;9.000;2022-12-20T02:49:02;3.70;99.90
5786;DHT22;2919;48.630;9.000;2022-12-20T02:51:30;3.70;99.90
5786;DHT22;2919;48.630;9.000;2022-12-20T02:53:58;3.60;99.90
5786;DHT22;2919;48.630;9.000;2022-12-20T02:56:37;3.60;99.90
5786;DHT22;2919;48.630;9.000;2022-12-20T02:59:06;3.50;99.90
5786;DHT22;2919;48.630;9.000;2022-12-20T03:01:36;3.50;99.90
5786;DHT22;2919;48.630;9.000;2022-12-20T03:04:04;3.40;99.90
5786;DHT22;2919;48.630;9.000;2022-12-20T03:06:30;3.40;99.90
5786;DHT22;2919;48.630;9.000;2022-12-20T03:08:56;3.40;99.90
5786;DHT22;2919;48.630;9.000;2022-12-20T03:11:22;3.40;99.90
5786;DHT22;2919;48.630;9.000;2022-12-20T03:13:47;3.40;99.90
5786;DHT22;2919;48.630;9.000;2022-12-20T03:16:14;3.30;99.90
5786;DHT22;2919;48.630;9.000;2022-12-20T03:18:39;3.30;99.90
5786;DHT22;2919;48.630;9.000;2022-12-20T03:21:05;3.20;99.90
5786;DHT22;2919;48.630;9.000;2022-12-20T03:23:31;3.20;99.90
5786;DHT22;2919;48.630;9.000;2022-12-20T03:25:57;3.20;99.90
5786;DHT22;2919;48.630;9.000;2022-12-20T03:28:22;3.20;99.90
5786;DHT22;2919;48.630;9.000;2022-12-20T03:30:48;3.40;99.90
5786;DHT22;2919;48.630;9.000;2022-12-20T03:33:14;3.60;99.90
5786;DHT22;2919;48.630;9.000;2022-12-20T03:35:40;3.60;99.90
5786;DHT22;2919;48.630;9.000;2022-12-20T03:38:06;3.60;99.90
5786;DHT22;2919;48.630;9.000;2022-12-20T03:40:32;3.60;99.90
5786;DHT22;2919;48.630;9.000;2022-12-20T03:42:57;3.50;99.90
5786;DHT22;2919;48.630;9.000;2022-12-20T03:45:23;3.40;99.90
5786;DHT22;2919;48.630;9.000;2022-12-20T03:47:48;3.40;99.90
5786;DHT22;2919;48.630;9.000;2022-12-20T03:50:14;3.40;99.90
5786;DHT22;2919;48.630;9.000;2022-12-20T03:52:39;3.40;99.90
5786;DHT22;2919;48.630;9.000;2022-12-20T03:55:06;3.40;99.90
5786;DHT22;2919;48.630;9.000;2022-12-20T03:57:31;3.40;99.90
5786;DHT22;2919;48.630;9.000;2022-12-20T03:59:57;3.40;99.90
5786;DHT22;2919;48.630;9.000;2022-12-20T04:02:23;3.40;99.90
5786;DHT22;2919;48.630;9.000;2022-12-20T04:04:48;3.50;99.90
5786;DHT22;2919;48.630;9.000;2022-12-20T04:07:14;3.60;99.90
5786;DHT22;2919;48.630;9.000;2022-12-20T04:09:40;3.60;99.90
5786;DHT22;2919;48.630;9.000;2022-12-20T04:12:06;3.60;99.90
5786;DHT22;2919;48.630;9.000;2022-12-20T04:14:31;3.70;99.90
5786;DHT22;2919;48.630;9.000;2022-12-20T04:16:57;3.70;99.90
5786;DHT22;2919;48.630;9.000;2022-12-20T04:19:23;3.60;99.90
5786;DHT22;2919;48.630;9.000;2022-12-20T04:21:48;3.60;99.90
5786;DHT22;2919;48.630;9.000;2022-12-20T04:24:14;3.60;99.90
5786;DHT22;2919;48.630;9.000;2022-12-20T04:26:40;3.60;99.90
5786;DHT22;2919;48.630;9.000;2022-12-20T04:29:05;3.60;99.90
5786;DHT22;2919;48.630;9.000;2022-12-20T04:31:31;3.70;99.90
5786;DHT22;2919;48.630;9.000;2022-12-20T04:33:57;3.80;99.90
5786;DHT22;2919;48.630;9.000;2022-12-20T04:36:23;3.90;99.90
5786;DHT22;2919;48.630;9.000;2022-12-20T04:38:48;3.90;99.90
5786;DHT22;2919;48.630;9.000;2022-12-20T04:41:14;3.90;99.90
5786;DHT22;2919;48.630;9.000;2022-12-20T04:43:54;3.80;99.90
5786;DHT22;2919;48.630;9.000;2022-12-20T04:46:21;3.80;99.90
5786;DHT22;2919;48.630;9.000;2022-12-20T04:48:48;3.80;99.90
5786;DHT22;2919;48.630;9.000;2022-12-20T04:51:14;3.80;99.90
5786;DHT22;2919;48.630;9.000;2022-12-20T04:53:40;3.80;99.90
5786;DHT22;2919;48.630;9.000;2022-12-20T04:56:13;3.80;99.90
5786;DHT22;2919;48.630;9.000;2022-12-20T04:58:39;3.70;99.90
5786;DHT22;2919;48.630;9.000;2022-12-20T05:01:05;3.70;99.90
5786;DHT22;2919;48.630;9.000;2022-12-20T05:03:30;3.60;99.90
5786;DHT22;2919;48.630;9.000;2022-12-20T05:05:56;3.60;99.90
5786;DHT22;2919;48.630;9.000;2022-12-20T05:08:22;3.60;99.90
5786;DHT22;2919;48.630;9.000;2022-12-20T05:10:48;3.70;99.90
5786;DHT22;2919;48.630;9.000;2022-12-20T05:13:14;3.70;99.90
5786;DHT22;2919;48.630;9.000;2022-12-20T05:15:40;3.80;99.90
5786;DHT22;2919;48.630;9.000;2022-12-20T05:18:06;3.90;99.90
5786;DHT22;2919;48.630;9.000;2022-12-20T05:20:32;4.00;99.90
5786;DHT22;2919;48.630;9.000;2022-12-20T05:22:58;4.20;99.90
5786;DHT22;2919;48.630;9.000;2022-12-20T05:25:45;4.20;99.90
5786;DHT22;2919;48.630;9.000;2022-12-20T05:28:34;4.20;99.90
5786;DHT22;2919;48.630;9.000;2022-12-20T05:31:00;4.20;99.90
5786;DHT22;2919;48.630;9.000;2022-12-20T05:33:26;4.20;99.90
5786;DHT22;2919;48.630;9.000;2022-12-20T05:35:52;4.20;99.90
5786;DHT22;2919;48.630;9.000;2022-12-20T05:38:18;4.20;99.90
5786;DHT22;2919;48.630;9.000;2022-12-20T05:40:46;4.10;99.90
5786;DHT22;2919;48.630;9.000;2022-12-20T05:43:12;4.10;99.90
5786;DHT22;2919;48.630;9.000;2022-12-20T05:45:38;4.20;99.90
5786;DHT22;2919;48.630;9.000;2022-12-20T05:48:03;4.30;99.90
5786;DHT22;2919;48.630;9.000;2022-12-20T05:50:29;4.40;99.90
5786;DHT22;2919;48.630;9.000;2022-12-20T05:52:55;4.50;99.90
5786;DHT22;2919;48.630;9.000;2022-12-20T05:55:20;4.50;99.90
5786;DHT22;2919;48.630;9.000;2022-12-20T05:57:46;4.60;99.90
5786;DHT22;2919;48.630;9.000;2022-12-20T06:00:12;4.70;99.90
5786;DHT22;2919;48.630;9.000;2022-12-20T06:02:38;4.80;99.90
5786;DHT22;2919;48.630;9.000;2022-12-20T06:05:04;4.90;99.90
5786;DHT22;2919;48.630;9.000;2022-12-20T06:07:30;5.00;99.90
5786;DHT22;2919;48.630;9.000;2022-12-20T06:09:57;5.10;99.90
5786;DHT22;2919;48.630;9.000;2022-12-20T06:12:23;5.10;99.90
5786;DHT22;2919;48.630;9.000;2022-12-20T06:14:49;5.20;99.90
5786;DHT22;2919;48.630;9.000;2022-12-20T06:17:14;5.30;99.90
5786;DHT22;2919;48.630;9.000;2022-12-20T06:19:40;5.40;99.90
5786;DHT22;2919;48.630;9.000;2022-12-20T06:22:09;5.40;99.90
5786;DHT22;2919;48.630;9.000;2022-12-20T06:24:35;5.40;99.90
5786;DHT22;2919;48.630;9.000;2022-12-20T06:27:02;5.40;99.90
5786;DHT22;2919;48.630;9.000;2022-12-20T06:29:28;5.40;99.90
5786;DHT22;2919;48.630;9.000;2022-12-20T06:31:54;5.40;99.90
5786;DHT22;2919;48.630;9.000;2022-12-20T06:34:20;5.40;99.90
5786;DHT22;2919;48.630;9.000;2022-12-20T06:36:46;5.40;99.90
5786;DHT22;2919;48.630;9.000;2022-12-20T06:39:12;5.30;99.90
5786;DHT22;2919;48.630;9.000;2022-12-20T06:41:39;5.40;99.90
5786;DHT22;2919;48.630;9.000;2022-12-20T06:44:05;5.40;99.90
5786;DHT22;2919;48.630;9.000;2022-12-20T06:46:30;5.40;99.90
5786;DHT22;2919;48.630;9.000;2022-12-20T06:48:56;5.40;99.90
5786;DHT22;2919;48.630;9.000;2022-12-20T06:51:22;5.30;99.90
5786;DHT22;2919;48.630;9.000;2022-12-20T06:53:47;5.50;99.90
5786;DHT22;2919;48.630;9.000;2022-12-20T06:56:13;5.50;99.90
5786;DHT22;2919;48.630;9.000;2022-12-20T06:58:39;5.50;99.90
5786;DHT22;2919;48.630;9.000;2022-12-20T07:01:04;5.50;99.90
5786;DHT22;2919;48.630;9.000;2022-12-20T07:03:30;5.50;99.90
5786;DHT22;2919;48.630;9.000;2022-12-20T07:05:56;5.50;99.90
5786;DHT22;2919;48.630;9.000;2022-12-20T07:08:22;5.50;99.90
5786;DHT22;2919;48.630;9.000;2022-12-20T07:10:48;5.60;99.90
5786;DHT22;2919;48.630;9.000;2022-12-20T07:13:14;5.60;99.90
5786;DHT22;2919;48.630;9.000;2022-12-20T07:15:40;5.60;99.90
5786;DHT22;2919;48.630;9.000;2022-12-20T07:18:05;5.50;99.90
5786;DHT22;2919;48.630;9.000;2022-12-20T07:20:31;5.50;99.90
5786;DHT22;2919;48.630;9.000;2022-12-20T07:22:57;5.50;99.90
5786;DHT22;2919;48.630;9.000;2022-12-20T07:25:22;5.60;99.90
5786;DHT22;2919;48.630;9.000;2022-12-20T07:27:50;5.70;99.90
5786;DHT22;2919;48.630;9.000;2022-12-20T07:30:17;5.80;99.90
5786;DHT22;2919;48.630;9.000;2022-12-20T07:32:43;5.90;99.90
5786;DHT22;2919;48.630;9.000;2022-12-20T07:35:10;5.90;99.90
5786;DHT22;2919;48.630;9.000;2022-12-20T07:37:36;6.00;99.90
5786;DHT22;2919;48.630;9.000;2022-12-20T07:40:03;6.10;99.90
5786;DHT22;2919;48.630;9.000;2022-12-20T07:42:28;6.00;99.90
5786;DHT22;2919;48.630;9.000;2022-12-20T07:44:54;6.10;99.90
5786;DHT22;2919;48.630;9.000;2022-12-20T07:47:20;6.10;99.90
5786;DHT22;2919;48.630;9.000;2022-12-20T07:49:45;6.10;99.90
5786;DHT22;2919;48.630;9.000;2022-12-20T07:52:13;6.00;99.90
5786;DHT22;2919;48.630;9.000;2022-12-20T07:54:44;6.00;99.90
5786;DHT22;2919;48.630;9.000;2022-12-20T07:57:19;6.10;99.90
5786;DHT22;2919;48.630;9.000;2022-12-20T07:59:49;6.10;99.90
5786;DHT22;2919;48.630;9.000;2022-12-20T08:02:20;6.10;99.90
5786;DHT22;2919;48.630;9.000;2022-12-20T08:04:47;6.10;99.90
5786;DHT22;2919;48.630;9.000;2022-12-20T08:07:13;6.20;99.90
5786;DHT22;2919;48.630;9.000;2022-12-20T08:09:41;6.20;99.90
5786;DHT22;2919;48.630;9.000;2022-12-20T08:12:09;6.10;99.90
5786;DHT22;2919;48.630;9.000;2022-12-20T08:14:37;6.20;99.90
5786;DHT22;2919;48.630;9.000;2022-12-20T08:17:03;6.20;99.90
5786;DHT22;2919;48.630;9.000;2022-12-20T08:19:29;6.30;99.90
5786;DHT22;2919;48.630;9.000;2022-12-20T08:21:54;6.30;99.90
5786;DHT22;2919;48.630;9.000;2022-12-20T08:24:20;6.30;99.90
5786;DHT22;2919;48.630;9.000;2022-12-20T08:26:45;6.30;99.90
5786;DHT22;2919;48.630;9.000;2022-12-20T08:29:11;6.30;99.90
5786;DHT22;2919;48.630;9.000;2022-12-20T08:31:40;6.30;99.90
5786;DHT22;2919;48.630;9.000;2022-12-20T08:34:07;6.30;99.90
5786;DHT22;2919;48.630;9.000;2022-12-20T08:36:33;6.30;99.90
5786;DHT22;2919;48.630;9.000;2022-12-20T08:39:02;6.30;99.90
5786;DHT22;2919;48.630;9.000;2022-12-20T08:41:28;6.20;99.90
5786;DHT22;2919;48.630;9.000;2022-12-20T08:43:53;6.20;99.90
5786;DHT22;2919;48.630;9.000;2022-12-20T08:46:19;6.20;99.90
5786;DHT22;2919;48.630;9.000;2022-12-20T08:48:44;6.30;99.90
5786;DHT22;2919;48.630;9.000;2022-12-20T08:51:10;6.30;99.90
5786;DHT22;2919;48.630;9.000;2022-12-20T08:53:37;6.40;99.90
5786;DHT22;2919;48.630;9.000;2022-12-20T08:58:33;6.40;99.90
5786;DHT22;2919;48.630;9.000;2022-12-20T09:01:00;6.30;99.90
5786;DHT22;2919;48.630;9.000;2022-12-20T09:03:28;6.30;99.90
5786;DHT22;2919;48.630;9.000;2022-12-20T09:05:55;6.30;99.90
5786;DHT22;2919;48.630;9.000;2022-12-20T09:08:21;6.30;99.90
5786;DHT22;2919;48.630;9.000;2022-12-20T09:10:46;6.40;99.90
5786;DHT22;2919;48.630;9.000;2022-12-20T09:13:12;6.40;99.90
5786;DHT22;2919;48.630;9.000;2022-12-20T09:15:37;6.50;99.90
5786;DHT22;2919;48.630;9.000;2022-12-20T09:18:04;6.40;99.90
5786;DHT22;2919;48.630;9.000;2022-12-20T09:20:30;6.40;99.90
5786;DHT22;2919;48.630;9.000;2022-12-20T09:22:57;6.50;99.90
5786;DHT22;2919;48.630;9.000;2022-12-20T09:25:24;6.40;99.90
5786;DHT22;2919;48.630;9.000;2022-12-20T09:27:50;6.40;99.90
5786;DHT22;2919;48.630;9.000;2022-12-20T09:30:16;6.50;99.90
5786;DHT22;2919;48.630;9.000;2022-12-20T09:32:41;6.60;99.90
5786;DHT22;2919;48.630;9.000;2022-12-20T09:35:07;6.60;99.90
5786;DHT22;2919;48.630;9.000;2022-12-20T09:37:33;6.60;99.90
5786;DHT22;2919;48.630;9.000;2022-12-20T09:39:59;6.70;99.90
5786;DHT22;2919;48.630;9.000;2022-12-20T09:42:26;6.70;99.90
5786;DHT22;2919;48.630;9.000;2022-12-20T09:45:07;6.70;99.90
5786;DHT22;2919;48.630;9.000;2022-12-20T09:47:35;6.80;99.90
5786;DHT22;2919;48.630;9.000;2022-12-20T09:50:01;6.80;99.90
5786;DHT22;2919;48.630;9.000;2022-12-20T09:52:45;6.90;99.90
5786;DHT22;2919;48.630;9.000;2022-12-20T09:55:30;7.10;99.90
5786;DHT22;2919;48.630;9.000;2022-12-20T10:00:42;7.20;99.90
5786;DHT22;2919;48.630;9.000;2022-12-20T10:03:17;7.20;99.90
5786;DHT22;2919;48.630;9.000;2022-12-20T10:08:28;7.20;99.90
5786;DHT22;2919;48.630;9.000;2022-12-20T10:13:56;7.10;99.90
5786;DHT22;2919;48.630;9.000;2022-12-20T10:16:42;7.00;99.90
5786;DHT22;2919;48.630;9.000;2022-12-20T10:24:57;6.80;99.90
5786;DHT22;2919;48.630;9.000;2022-12-20T10:27:24;6.80;99.90
5786;DHT22;2919;48.630;9.000;2022-12-20T10:29:50;6.80;99.90
5786;DHT22;2919;48.630;9.000;2022-12-20T10:32:19;6.80;99.90
5786;DHT22;2919;48.630;9.000;2022-12-20T10:34:56;6.80;99.90
5786;DHT22;2919;48.630;9.000;2022-12-20T10:37:24;6.70;99.90
5786;DHT22;2919;48.630;9.000;2022-12-20T10:39:51;6.70;99.90
5786;DHT22;2919;48.630;9.000;2022-12-20T10:42:43;6.70;99.90
5786;DHT22;2919;48.630;9.000;2022-12-20T10:47:42;6.70;99.90
5786;DHT22;2919;48.630;9.000;2022-12-20T10:50:20;6.80;99.90
5786;DHT22;2919;48.630;9.000;2022-12-20T10:53:16;6.80;99.90
5786;DHT22;2919;48.630;9.000;2022-12-20T10:55:43;6.80;99.90
5786;DHT22;2919;48.630;9.000;2022-12-20T10:58:31;6.80;99.90
5786;DHT22;2919;48.630;9.000;2022-12-20T11:01:10;7.00;99.90
5786;DHT22;2919;48.630;9.000;2022-12-20T11:04:04;7.00;99.90
5786;DHT22;2919;48.630;9.000;2022-12-20T11:09:22;7.10;99.90
5786;DHT22;2919;48.630;9.000;2022-12-20T11:11:58;7.20;99.90
5786;DHT22;2919;48.630;9.000;2022-12-20T11:14:24;7.20;99.90
5786;DHT22;2919;48.630;9.000;2022-12-20T11:16:52;7.20;99.90
5786;DHT22;2919;48.630;9.000;2022-12-20T11:19:43;7.20;99.90
5786;DHT22;2919;48.630;9.000;2022-12-20T11:24:54;7.10;99.90
5786;DHT22;2919;48.630;9.000;2022-12-20T11:27:26;7.10;99.90
5786;DHT22;2919;48.630;9.000;2022-12-20T11:32:25;7.20;99.90
5786;DHT22;2919;48.630;9.000;2022-12-20T11:35:18;7.30;99.90
5786;DHT22;2919;48.630;9.000;2022-12-20T11:51:38;7.50;99.90
5786;DHT22;2919;48.630;9.000;2022-12-20T11:54:17;7.50;99.90
5786;DHT22;2919;48.630;9.000;2022-12-20T11:56:48;7.50;99.90
5786;DHT22;2919;48.630;9.000;2022-12-20T11:59:40;7.50;99.90
5786;DHT22;2919;48.630;9.000;2022-12-20T12:02:12;7.50;99.90
5786;DHT22;2919;48.630;9.000;2022-12-20T12:04:54;7.50;99.90
5786;DHT22;2919;48.630;9.000;2022-12-20T12:07:26;7.50;99.90
5786;DHT22;2919;48.630;9.000;2022-12-20T12:12:33;7.40;99.90
5786;DHT22;2919;48.630;9.000;2022-12-20T12:17:50;7.40;99.90
5786;DHT22;2919;48.630;9.000;2022-12-20T12:23:23;7.50;99.90
5786;DHT22;2919;48.630;9.000;2022-12-20T12:25:51;7.50;99.90
5786;DHT22;2919;48.630;9.000;2022-12-20T12:28:18;7.50;99.90
5786;DHT22;2919;48.630;9.000;2022-12-20T12:30:52;7.50;99.90
5786;DHT22;2919;48.630;9.000;2022-12-20T12:33:27;7.50;99.90
5786;DHT22;2919;48.630;9.000;2022-12-20T12:39:33;7.50;99.90
5786;DHT22;2919;48.630;9.000;2022-12-20T12:45:06;7.50;99.90
5786;DHT22;2919;48.630;9.000;2022-12-20T12:47:42;7.50;99.90
5786;DHT22;2919;48.630;9.000;2022-12-20T12:50:37;7.50;99.90
5786;DHT22;2919;48.630;9.000;2022-12-20T12:53:23;7.50;99.90
5786;DHT22;2919;48.630;9.000;2022-12-20T12:55:53;7.60;99.90
5786;DHT22;2919;48.630;9.000;2022-12-20T13:00:58;7.50;99.90
5786;DHT22;2919;48.630;9.000;2022-12-20T13:04:07;7.60;99.90
5786;DHT22;2919;48.630;9.000;2022-12-20T13:16:44;7.80;99.90
5786;DHT22;2919;48.630;9.000;2022-12-20T13:19:14;7.80;99.90
5786;DHT22;2919;48.630;9.000;2022-12-20T13:21:43;7.70;99.90
5786;DHT22;2919;48.630;9.000;2022-12-20T13:27:42;7.50;99.90
5786;DHT22;2919;48.630;9.000;2022-12-20T13:32:55;7.50;99.90
5786;DHT22;2919;48.630;9.000;2022-12-20T13:38:39;7.40;99.90
5786;DHT22;2919;48.630;9.000;2022-12-20T13:43:48;7.40;99.90
5786;DHT22;2919;48.630;9.000;2022-12-20T13:49:04;7.30;99.90
5786;DHT22;2919;48.630;9.000;2022-12-20T13:51:33;7.30;99.90
5786;DHT22;2919;48.630;9.000;2022-12-20T13:54:04;7.40;99.90
5786;DHT22;2919;48.630;9.000;2022-12-20T13:56:41;7.40;99.90
5786;DHT22;2919;48.630;9.000;2022-12-20T13:59:25;7.40;99.90
5786;DHT22;2919;48.630;9.000;2022-12-20T14:02:00;7.40;99.90
5786;DHT22;2919;48.630;9.000;2022-12-20T14:04:40;7.40;99.90
5786;DHT22;2919;48.630;9.000;2022-12-20T14:07:11;7.50;99.90
5786;DHT22;2919;48.630;9.000;2022-12-20T14:09:38;7.50;99.90
5786;DHT22;2919;48.630;9.000;2022-12-20T14:12:15;7.60;99.90
5786;DHT22;2919;48.630;9.000;2022-12-20T14:14:44;7.60;99.90
5786;DHT22;2919;48.630;9.000;2022-12-20T14:17:25;7.70;99.90
5786;DHT22;2919;48.630;9.000;2022-12-20T14:22:36;7.80;99.90
5786;DHT22;2919;48.630;9.000;2022-12-20T14:25:04;7.70;99.90
5786;DHT22;2919;48.630;9.000;2022-12-20T14:27:33;7.50;99.90
5786;DHT22;2919;48.630;9.000;2022-12-20T14:30:00;7.50;99.90
5786;DHT22;2919;48.630;9.000;2022-12-20T14:32:26;7.50;99.90
5786;DHT22;2919;48.630;9.000;2022-12-20T14:34:52;7.50;99.90
5786;DHT22;2919;48.630;9.000;2022-12-20T14:37:33;7.50;99.90
5786;DHT22;2919;48.630;9.000;2022-12-20T14:42:37;7.40;99.90
5786;DHT22;2919;48.630;9.000;2022-12-20T14:45:14;7.30;99.90
5786;DHT22;2919;48.630;9.000;2022-12-20T14:48:01;7.20;99.90
5786;DHT22;2919;48.630;9.000;2022-12-20T14:50:31;7.10;99.90
5786;DHT22;2919;48.630;9.000;2022-12-20T14:52:58;7.00;99.90
5786;DHT22;2919;48.630;9.000;2022-12-20T14:55:32;7.00;99.90
5786;DHT22;2919;48.630;9.000;2022-12-20T14:57:58;6.90;99.90
5786;DHT22;2919;48.630;9.000;2022-12-20T15:00:27;6.90;99.90
5786;DHT22;2919;48.630;9.000;2022-12-20T15:08:30;6.90;99.90
5786;DHT22;2919;48.630;9.000;2022-12-20T15:11:11;6.80;99.90
5786;DHT22;2919;48.630;9.000;2022-12-20T15:13:41;6.80;99.90
5786;DHT22;2919;48.630;9.000;2022-12-20T15:16:29;6.80;99.90
5786;DHT22;2919;48.630;9.000;2022-12-20T15:18:59;6.70;99.90
5786;DHT22;2919;48.630;9.000;2022-12-20T15:21:36;6.80;99.90
5786;DHT22;2919;48.630;9.000;2022-12-20T15:24:08;6.80;99.90
5786;DHT22;2919;48.630;9.000;2022-12-20T15:26:35;6.90;99.90
5786;DHT22;2919;48.630;9.000;2022-12-20T15:29:01;6.90;99.90
5786;DHT22;2919;48.630;9.000;2022-12-20T15:31:27;6.80;99.90
5786;DHT22;2919;48.630;9.000;2022-12-20T15:33:54;6.80;99.90
5786;DHT22;2919;48.630;9.000;2022-12-20T15:36:27;6.90;99.90
5786;DHT22;2919;48.630;9.000;2022-12-20T15:38:54;6.80;99.90
5786;DHT22;2919;48.630;9.000;2022-12-20T15:41:26;6.90;99.90
5786;DHT22;2919;48.630;9.000;2022-12-20T15:43:55;6.90;99.90
5786;DHT22;2919;48.630;9.000;2022-12-20T15:46:21;7.10;99.90
5786;DHT22;2919;48.630;9.000;2022-12-20T15:48:47;7.10;99.90
5786;DHT22;2919;48.630;9.000;2022-12-20T15:51:30;7.10;99.90
5786;DHT22;2919;48.630;9.000;2022-12-20T15:53:57;7.10;99.90
5786;DHT22;2919;48.630;9.000;2022-12-20T15:56:24;7.00;99.90
5786;DHT22;2919;48.630;9.000;2022-12-20T15:58:50;7.00;99.90
5786;DHT22;2919;48.630;9.000;2022-12-20T16:01:29;7.00;99.90
5786;DHT22;2919;48.630;9.000;2022-12-20T16:03:55;7.00;99.90
5786;DHT22;2919;48.630;9.000;2022-12-20T16:06:21;7.10;99.90
5786;DHT22;2919;48.630;9.000;2022-12-20T16:08:47;7.20;99.90
5786;DHT22;2919;48.630;9.000;2022-12-20T16:11:25;7.30;99.90
5786;DHT22;2919;48.630;9.000;2022-12-20T16:13:52;7.30;99.90
5786;DHT22;2919;48.630;9.000;2022-12-20T16:16:20;7.30;99.90
5786;DHT22;2919;48.630;9.000;2022-12-20T16:18:46;7.20;99.90
5786;DHT22;2919;48.630;9.000;2022-12-20T16:21:22;7.20;99.90
5786;DHT22;2919;48.630;9.000;2022-12-20T16:23:49;7.20;99.90
5786;DHT22;2919;48.630;9.000;2022-12-20T16:26:20;7.20;99.90
5786;DHT22;2919;48.630;9.000;2022-12-20T16:28:47;7.10;99.90
5786;DHT22;2919;48.630;9.000;2022-12-20T16:31:29;7.20;99.90
5786;DHT22;2919;48.630;9.000;2022-12-20T16:34:01;7.30;99.90
5786;DHT22;2919;48.630;9.000;2022-12-20T16:36:30;7.40;99.90
5786;DHT22;2919;48.630;9.000;2022-12-20T16:38:56;7.50;99.90
5786;DHT22;2919;48.630;9.000;2022-12-20T16:41:30;7.60;99.90
5786;DHT22;2919;48.630;9.000;2022-12-20T16:43:58;7.70;99.90
5786;DHT22;2919;48.630;9.000;2022-12-20T16:46:25;7.70;99.90
5786;DHT22;2919;48.630;9.000;2022-12-20T16:48:52;7.90;99.90
5786;DHT22;2919;48.630;9.000;2022-12-20T16:51:23;7.80;99.90
5786;DHT22;2919;48.630;9.000;2022-12-20T16:53:53;7.90;99.90
5786;DHT22;2919;48.630;9.000;2022-12-20T16:56:19;7.80;99.90
5786;DHT22;2919;48.630;9.000;2022-12-20T16:58:45;7.80;99.90
5786;DHT22;2919;48.630;9.000;2022-12-20T17:01:22;7.70;99.90
5786;DHT22;2919;48.630;9.000;2022-12-20T17:03:49;7.70;99.90
5786;DHT22;2919;48.630;9.000;2022-12-20T17:06:15;7.70;99.90
5786;DHT22;2919;48.630;9.000;2022-12-20T17:08:42;7.70;99.90
5786;DHT22;2919;48.630;9.000;2022-12-20T17:13:40;7.70;99.90
5786;DHT22;2919;48.630;9.000;2022-12-20T17:16:07;7.60;99.90
5786;DHT22;2919;48.630;9.000;2022-12-20T17:18:33;7.60;99.90
5786;DHT22;2919;48.630;9.000;2022-12-20T17:21:00;7.60;99.90
5786;DHT22;2919;48.630;9.000;2022-12-20T17:23:27;7.70;99.90
5786;DHT22;2919;48.630;9.000;2022-12-20T17:25:53;7.70;99.90
5786;DHT22;2919;48.630;9.000;2022-12-20T17:28:18;7.70;99.90
5786;DHT22;2919;48.630;9.000;2022-12-20T17:30:44;7.70;99.90
5786;DHT22;2919;48.630;9.000;2022-12-20T17:33:13;7.60;99.90
5786;DHT22;2919;48.630;9.000;2022-12-20T17:35:39;7.60;99.90
5786;DHT22;2919;48.630;9.000;2022-12-20T17:38:04;7.70;99.90
5786;DHT22;2919;48.630;9.000;2022-12-20T17:40:32;7.50;99.90
5786;DHT22;2919;48.630;9.000;2022-12-20T17:42:57;7.50;99.90
5786;DHT22;2919;48.630;9.000;2022-12-20T17:45:27;7.50;99.90
5786;DHT22;2919;48.630;9.000;2022-12-20T17:47:54;7.60;99.90
5786;DHT22;2919;48.630;9.000;2022-12-20T17:50:20;7.70;99.90
5786;DHT22;2919;48.630;9.000;2022-12-20T17:52:47;7.60;99.90
5786;DHT22;2919;48.630;9.000;2022-12-20T17:55:30;7.60;99.90
5786;DHT22;2919;48.630;9.000;2022-12-20T17:57:56;7.50;99.90
5786;DHT22;2919;48.630;9.000;2022-12-20T18:00:25;7.50;99.90
5786;DHT22;2919;48.630;9.000;2022-12-20T18:02:52;7.50;99.90
5786;DHT22;2919;48.630;9.000;2022-12-20T18:05:18;7.50;99.90
5786;DHT22;2919;48.630;9.000;2022-12-20T18:07:52;7.50;99.90
5786;DHT22;2919;48.630;9.000;2022-12-20T18:10:18;7.50;99.90
5786;DHT22;2919;48.630;9.000;2022-12-20T18:12:51;7.50;99.90
5786;DHT22;2919;48.630;9.000;2022-12-20T18:15:16;7.50;99.90
5786;DHT22;2919;48.630;9.000;2022-12-20T18:17:44;7.60;99.90
5786;DHT22;2919;48.630;9.000;2022-12-20T18:20:10;7.60;99.90
5786;DHT22;2919;48.630;9.000;2022-12-20T18:22:36;7.70;99.90
5786;DHT22;2919;48.630;9.000;2022-12-20T18:25:02;7.70;99.90